Time;durP1;ratioP1;P1;durP2;ratioP2;P2;SDS_P1;SDS_P2;PMS_P1;PMS_P2;Temp;Humidity;BMP_temperature;BMP_pressure;BME280_temperature;BME280_humidity;BME280_pressure;Samples;Min_cycle;Max_cycle;Signal;HPM_P1;HPM_P2
2023/04/03 00:02:06;;;;;;;;;;;;;;;2.61;82.49;102933.88;5007018;28;1420;-76
2023/04/03 00:04:31;;;;;;;;;;;;;;;2.61;82.15;102941.56;4993041;28;1948;-76
2023/04/03 00:06:56;;;;;;;;;;;;;;;2.62;82.15;102948.38;5000706;28;2531;-76
2023/04/03 00:09:22;;;;;;;;;;;;;;;2.60;82.12;102942.44;5004598;28;1229;-76
2023/04/03 00:11:47;;;;;;;;;;;;;;;2.58;81.88;102951.88;5004388;28;1487;-76
2023/04/03 00:14:12;;;;;;;;;;;;;;;2.56;82.01;102948.47;4999566;28;1985;-77
2023/04/03 00:16:37;;;;;;;;;;;;;;;2.56;81.35;102947.59;5000185;28;1191;-76
2023/04/03 00:19:02;;;;;;;;;;;;;;;2.53;81.70;102947.66;4960353;28;1101300;-75
2023/04/03 00:21:28;;;;;;;;;;;;;;;2.51;82.51;102947.66;4999667;28;1177;-76
2023/04/03 00:23:53;;;;;;;;;;;;;;;2.51;81.82;102955.34;5006650;28;1241;-77
2023/04/03 00:26:18;;;;;;;;;;;;;;;2.49;81.55;102951.13;5004837;28;1135;-76
2023/04/03 00:28:43;;;;;;;;;;;;;;;2.47;81.67;102953.72;5002314;28;1137;-77
2023/04/03 00:31:09;;;;;;;;;;;;;;;2.46;81.53;102957.13;5003886;28;1197;-76
2023/04/03 00:33:34;;;;;;;;;;;;;;;2.43;82.00;102952.06;4990128;28;2020;-76
2023/04/03 00:36:05;;;;;;;;;;;;;;;2.40;81.97;102954.66;5007576;28;1142;-77
2023/04/03 00:38:30;;;;;;;;;;;;;;;2.36;82.09;102960.69;4999058;28;1022;-76
2023/04/03 00:40:56;;;;;;;;;;;;;;;2.36;81.93;102953.03;4995123;28;1331;-76
2023/04/03 00:43:22;;;;;;;;;;;;;;;2.32;82.26;102953.91;5001563;28;1004;-76
2023/04/03 00:45:57;;;;;;;;;;;;;;;2.29;81.89;102969.31;5004384;28;1362;-76
2023/04/03 00:48:26;;;;;;;;;;;;;;;2.28;81.95;102965.06;4999464;28;1050;-76
2023/04/03 00:50:52;;;;;;;;;;;;;;;2.29;81.66;102969.31;4990015;28;1456;-76
2023/04/03 00:53:30;;;;;;;;;;;;;;;2.27;82.21;102966.78;5002846;28;1902;-76
2023/04/03 00:55:55;;;;;;;;;;;;;;;2.25;82.15;102968.50;4983255;28;1224;-75
2023/04/03 00:58:24;;;;;;;;;;;;;;;2.23;82.38;102966.81;5007190;28;1126;-77
2023/04/03 01:00:56;;;;;;;;;;;;;;;2.20;82.72;102979.69;4999754;28;1134;-77
2023/04/03 01:03:21;;;;;;;;;;;;;;;2.19;82.35;102978.84;5006586;28;1157;-76
2023/04/03 01:05:46;;;;;;;;;;;;;;;2.17;81.76;102979.69;5006464;28;1174;-76
2023/04/03 01:08:12;;;;;;;;;;;;;;;2.17;82.53;102974.59;5005920;28;1283;-76
2023/04/03 01:10:37;;;;;;;;;;;;;;;2.19;82.21;102978.00;4999321;28;1163;-76
2023/04/03 01:13:17;;;;;;;;;;;;;;;2.16;82.63;102985.69;5004378;28;1146;-76
2023/04/03 01:15:42;;;;;;;;;;;;;;;2.15;82.15;102986.56;5002643;28;1422;-76
2023/04/03 01:18:09;;;;;;;;;;;;;;;2.14;82.28;102980.59;4997905;28;1099;-76
2023/04/03 01:20:42;;;;;;;;;;;;;;;2.12;82.31;102987.44;5001489;28;1160;-76
2023/04/03 01:23:23;;;;;;;;;;;;;;;2.11;82.21;102986.59;5000622;28;1169;-77
2023/04/03 01:25:50;;;;;;;;;;;;;;;2.12;82.03;102982.31;4999916;28;1089;-75
2023/04/03 01:28:20;;;;;;;;;;;;;;;2.13;81.91;102979.75;5003920;28;1188;-75
2023/04/03 01:30:52;;;;;;;;;;;;;;;2.10;82.42;102977.22;5000990;28;1035;-76
2023/04/03 01:33:18;;;;;;;;;;;;;;;2.09;82.08;102978.09;5001443;28;1899;-76
2023/04/03 01:35:43;;;;;;;;;;;;;;;2.09;82.23;102980.66;4995144;28;1127;-76
2023/04/03 01:38:08;;;;;;;;;;;;;;;2.07;82.95;102984.94;4997799;28;1101;-76
2023/04/03 01:40:33;;;;;;;;;;;;;;;2.05;82.45;102986.66;5001527;28;1010;-76
2023/04/03 01:42:59;;;;;;;;;;;;;;;2.03;82.05;102978.16;4998606;28;1121;-76
2023/04/03 01:45:24;;;;;;;;;;;;;;;2.02;82.44;102986.72;4978447;28;1188;-76
2023/04/03 01:47:49;;;;;;;;;;;;;;;2.00;82.56;102983.28;5007878;28;1205;-75
2023/04/03 01:50:15;;;;;;;;;;;;;;;2.00;82.39;102978.19;5005021;28;1280;-76
2023/04/03 01:52:40;;;;;;;;;;;;;;;1.97;83.14;102983.34;5003470;28;1062;-76
2023/04/03 01:55:05;;;;;;;;;;;;;;;1.97;83.25;102973.09;5005618;28;1886;-75
2023/04/03 01:57:30;;;;;;;;;;;;;;;1.97;82.37;102982.50;5004846;28;1114;-76
2023/04/03 01:59:56;;;;;;;;;;;;;;;1.96;82.94;102976.53;5005665;28;1502;-76
2023/04/03 02:02:21;;;;;;;;;;;;;;;1.91;83.15;102978.28;4999455;28;1345;-76
2023/04/03 02:04:46;;;;;;;;;;;;;;;1.93;83.26;102981.69;5005272;28;1099;-76
2023/04/03 02:07:12;;;;;;;;;;;;;;;1.91;83.83;102980.84;5005565;28;1169;-75
2023/04/03 02:09:37;;;;;;;;;;;;;;;1.92;83.85;102990.22;5000524;28;1173;-75
2023/04/03 02:12:02;;;;;;;;;;;;;;;1.94;84.00;102985.94;5004389;28;1214;-76
2023/04/03 02:14:28;;;;;;;;;;;;;;;1.94;83.29;102988.47;5004344;28;1906;-76
2023/04/03 02:16:53;;;;;;;;;;;;;;;1.89;83.96;102992.81;5003728;28;1384;-76
2023/04/03 02:19:18;;;;;;;;;;;;;;;1.89;84.07;103005.59;5008382;28;1428;-76
2023/04/03 02:21:44;;;;;;;;;;;;;;;1.90;83.77;103002.19;5004907;28;1264;-76
2023/04/03 02:24:09;;;;;;;;;;;;;;;1.84;83.75;103002.25;5002278;28;1239;-76
2023/04/03 02:26:35;;;;;;;;;;;;;;;1.81;83.98;103008.25;5004836;28;1065;-76
2023/04/03 02:29:00;;;;;;;;;;;;;;;1.79;84.74;103004.00;5009562;28;1329;-75
2023/04/03 02:31:25;;;;;;;;;;;;;;;1.77;84.24;103010.84;4999718;28;1222;-76
2023/04/03 02:33:51;;;;;;;;;;;;;;;1.74;84.73;103005.78;5002865;28;1918;-75
2023/04/03 02:36:16;;;;;;;;;;;;;;;1.72;85.58;103007.47;5008005;28;1159;-76
2023/04/03 02:38:41;;;;;;;;;;;;;;;1.71;85.16;103016.00;4999507;28;1250;-75
2023/04/03 02:41:08;;;;;;;;;;;;;;;1.71;84.71;103000.66;4996896;28;1410;-75
2023/04/03 02:43:33;;;;;;;;;;;;;;;1.69;85.10;103002.41;5008983;28;1420;-76
2023/04/03 02:45:59;;;;;;;;;;;;;;;1.66;84.79;103002.41;4982395;28;2270;-76
2023/04/03 02:48:24;;;;;;;;;;;;;;;1.65;85.38;103005.84;5008885;28;1206;-75
2023/04/03 02:50:50;;;;;;;;;;;;;;;1.67;84.98;103009.25;4997465;28;2036;-75
2023/04/03 02:53:15;;;;;;;;;;;;;;;1.59;85.21;103001.63;4998235;28;1098;-76
2023/04/03 02:55:40;;;;;;;;;;;;;;;1.59;85.89;103007.59;5008907;28;1273;-75
2023/04/03 02:58:06;;;;;;;;;;;;;;;1.54;85.80;103014.44;5006893;28;1519;-75
2023/04/03 03:00:31;;;;;;;;;;;;;;;1.56;85.83;103017.03;5009871;28;1176;-76
2023/04/03 03:02:56;;;;;;;;;;;;;;;1.54;85.79;103011.91;4990818;28;1292;-76
2023/04/03 03:05:22;;;;;;;;;;;;;;;1.54;85.30;103004.22;5005646;28;1078;-75
2023/04/03 03:07:47;;;;;;;;;;;;;;;1.50;85.87;103007.69;5007417;28;1239;-75
2023/04/03 03:10:12;;;;;;;;;;;;;;;1.54;85.87;103023.84;5003786;28;1429;-75
2023/04/03 03:12:37;;;;;;;;;;;;;;;1.51;85.89;103009.38;4999742;28;1179;-75
2023/04/03 03:15:03;;;;;;;;;;;;;;;1.48;85.48;103014.50;5003093;28;1985;-76
2023/04/03 03:17:28;;;;;;;;;;;;;;;1.43;86.79;103016.25;5008668;28;1118;-75
2023/04/03 03:19:53;;;;;;;;;;;;;;;1.43;86.06;103025.63;5010117;28;1029;-76
2023/04/03 03:22:18;;;;;;;;;;;;;;;1.44;86.37;103017.97;5007306;28;1451;-76
2023/04/03 03:24:44;;;;;;;;;;;;;;;1.41;86.56;103022.25;5002263;28;1006;-76
2023/04/03 03:27:09;;;;;;;;;;;;;;;1.37;86.59;103018.84;5008751;28;1115;-75
2023/04/03 03:29:34;;;;;;;;;;;;;;;1.35;87.14;103023.16;5003725;28;1410;-75
2023/04/03 03:32:00;;;;;;;;;;;;;;;1.35;86.66;103028.25;5009250;28;1078;-75
2023/04/03 03:34:25;;;;;;;;;;;;;;;1.33;87.22;103024.88;5003865;28;1965;-75
2023/04/03 03:36:50;;;;;;;;;;;;;;;1.33;86.88;103033.41;4996846;28;1018;-76
2023/04/03 03:39:15;;;;;;;;;;;;;;;1.32;87.29;103034.25;5008101;28;1046;-75
2023/04/03 03:41:40;;;;;;;;;;;;;;;1.32;87.02;103029.16;5003115;28;997;-75
2023/04/03 03:44:06;;;;;;;;;;;;;;;1.33;86.63;103035.09;5005259;28;1043;-76
2023/04/03 03:46:31;;;;;;;;;;;;;;;1.30;86.87;103037.66;5003430;28;1045;-76
2023/04/03 03:48:56;;;;;;;;;;;;;;;1.30;87.54;103035.13;5001986;28;1338;-75
2023/04/03 03:51:21;;;;;;;;;;;;;;;1.29;87.49;103043.66;5002902;28;1011;-75
2023/04/03 03:53:47;;;;;;;;;;;;;;;1.30;87.62;103040.22;5003675;28;1953;-76
2023/04/03 03:56:12;;;;;;;;;;;;;;;1.26;87.21;103043.66;5001825;28;1240;-76
2023/04/03 03:58:37;;;;;;;;;;;;;;;1.23;87.20;103048.81;5006622;28;1378;-76
2023/04/03 04:01:03;;;;;;;;;;;;;;;1.22;87.85;103042.00;4990611;28;1150;-75
2023/04/03 04:03:28;;;;;;;;;;;;;;;1.23;88.16;103046.25;5011853;28;1362;-76
2023/04/03 04:05:54;;;;;;;;;;;;;;;1.22;87.86;103047.13;5004963;28;1050;-76
2023/04/03 04:08:19;;;;;;;;;;;;;;;1.24;87.90;103050.50;4991081;28;1348;-75
2023/04/03 04:10:45;;;;;;;;;;;;;;;1.25;87.46;103047.06;5011661;28;1166;-76
2023/04/03 04:13:10;;;;;;;;;;;;;;;1.23;87.94;103048.81;5007587;28;1208;-76
2023/04/03 04:15:35;;;;;;;;;;;;;;;1.24;87.68;103043.69;5009866;28;1965;-75
2023/04/03 04:18:00;;;;;;;;;;;;;;;1.24;87.62;103059.00;4998271;28;1369;-76
2023/04/03 04:20:25;;;;;;;;;;;;;;;1.24;87.98;103055.59;5007851;28;992;-77
2023/04/03 04:22:51;;;;;;;;;;;;;;;1.25;87.18;103059.84;4996286;28;1202;-76
2023/04/03 04:25:16;;;;;;;;;;;;;;;1.23;88.04;103048.81;5003397;28;1070;-76
2023/04/03 04:27:41;;;;;;;;;;;;;;;1.23;87.67;103051.38;5006765;28;1214;-76
2023/04/03 04:30:07;;;;;;;;;;;;;;;1.21;87.35;103055.66;5000498;28;1286;-75
2023/04/03 04:32:32;;;;;;;;;;;;;;;1.20;87.22;103053.94;4995915;28;1325;-76
2023/04/03 04:34:58;;;;;;;;;;;;;;;1.20;87.77;103061.59;5003967;28;2053;-75
2023/04/03 04:37:23;;;;;;;;;;;;;;;1.18;88.32;103055.66;5011036;28;1162;-76
2023/04/03 04:39:48;;;;;;;;;;;;;;;1.14;88.22;103053.97;5001872;28;1132;-74
2023/04/03 04:42:14;;;;;;;;;;;;;;;1.14;88.28;103059.09;5003683;28;1154;-75
2023/04/03 04:44:40;;;;;;;;;;;;;;;1.11;88.35;103061.66;5004340;28;1136;-76
2023/04/03 04:47:05;;;;;;;;;;;;;;;1.11;88.12;103066.78;4999841;28;1146;-76
2023/04/03 04:49:30;;;;;;;;;;;;;;;1.09;88.76;103066.81;5000638;28;1824;-76
2023/04/03 04:51:55;;;;;;;;;;;;;;;1.06;88.50;103067.66;4995330;28;1290;-76
2023/04/03 04:54:21;;;;;;;;;;;;;;;1.06;88.25;103065.09;5001558;28;1894;-75
2023/04/03 04:56:46;;;;;;;;;;;;;;;1.06;88.37;103067.66;5002962;28;1391;-76
2023/04/03 04:59:11;;;;;;;;;;;;;;;1.04;88.38;103069.38;5001461;28;1288;-75
2023/04/03 05:01:36;;;;;;;;;;;;;;;1.01;88.58;103069.38;5003533;28;1141;-76
2023/04/03 05:04:02;;;;;;;;;;;;;;;1.00;88.79;103072.78;4991414;28;1996;-75
2023/04/03 05:06:27;;;;;;;;;;;;;;;0.95;88.56;103068.56;4989632;28;1540;-76
2023/04/03 05:08:52;;;;;;;;;;;;;;;0.98;88.77;103074.53;5006550;28;1294;-75
2023/04/03 05:11:17;;;;;;;;;;;;;;;0.96;88.90;103076.22;4998173;28;1515;-76
2023/04/03 05:13:43;;;;;;;;;;;;;;;0.95;88.19;103082.19;5006549;28;1984;-76
2023/04/03 05:16:08;;;;;;;;;;;;;;;0.93;88.64;103081.38;4998611;28;1151;-76
2023/04/03 05:18:33;;;;;;;;;;;;;;;0.91;88.44;103088.16;5009891;28;1186;-76
2023/04/03 05:20:58;;;;;;;;;;;;;;;0.89;88.39;103089.88;4997211;28;1353;-76
2023/04/03 05:23:24;;;;;;;;;;;;;;;0.88;88.81;103083.09;5006183;28;1170;-76
2023/04/03 05:25:49;;;;;;;;;;;;;;;0.88;88.44;103083.09;4998956;28;1098;-77
2023/04/03 05:28:14;;;;;;;;;;;;;;;0.90;88.27;103089.03;5001004;28;1105;-76
2023/04/03 05:30:40;;;;;;;;;;;;;;;0.91;87.99;103080.50;5002907;28;1096;-76
2023/04/03 05:33:05;;;;;;;;;;;;;;;0.86;88.11;103084.81;5004188;28;946;-76
2023/04/03 05:35:31;;;;;;;;;;;;;;;0.82;88.51;103090.78;5003793;28;1907;-77
2023/04/03 05:37:56;;;;;;;;;;;;;;;0.80;88.49;103089.91;4993809;28;1073;-76
2023/04/03 05:40:21;;;;;;;;;;;;;;;0.81;88.24;103095.91;5009261;28;1095;-76
2023/04/03 05:42:47;;;;;;;;;;;;;;;0.77;88.81;103100.16;5008609;28;1108;-76
2023/04/03 05:45:12;;;;;;;;;;;;;;;0.78;88.53;103109.53;5004552;28;1094;-75
2023/04/03 05:47:37;;;;;;;;;;;;;;;0.79;89.00;103109.50;5000366;28;1022;-75
2023/04/03 05:50:03;;;;;;;;;;;;;;;0.81;88.54;103106.13;4996990;28;1174;-76
2023/04/03 05:52:34;;;;;;;;;;;;;;;0.80;88.94;103105.25;5007295;28;1093;-76
2023/04/03 05:55:00;;;;;;;;;;;;;;;0.82;88.68;103103.56;4979568;28;1910;-75
2023/04/03 05:57:25;;;;;;;;;;;;;;;0.82;88.66;103118.88;4996751;28;1239;-77
2023/04/03 05:59:50;;;;;;;;;;;;;;;0.85;88.82;103115.44;4993309;28;1372;-77
2023/04/03 06:02:17;;;;;;;;;;;;;;;0.87;88.63;103124.81;5005645;28;1297;-76
2023/04/03 06:04:43;;;;;;;;;;;;;;;0.93;88.21;103121.41;5005586;28;1190;-77
2023/04/03 06:07:13;;;;;;;;;;;;;;;0.88;88.89;103123.13;4988895;28;1440;-76
2023/04/03 06:09:38;;;;;;;;;;;;;;;0.89;88.52;103120.53;4994393;28;1420;-77
2023/04/03 06:12:03;;;;;;;;;;;;;;;0.91;88.51;103126.50;5005388;28;1232;-76
2023/04/03 06:14:28;;;;;;;;;;;;;;;1.00;88.19;103128.16;5006684;28;1890;-77
2023/04/03 06:16:54;;;;;;;;;;;;;;;0.94;88.86;103134.16;5002152;28;1132;-76
2023/04/03 06:19:19;;;;;;;;;;;;;;;1.02;88.02;103123.88;5005662;28;1321;-77
2023/04/03 06:21:45;;;;;;;;;;;;;;;1.06;88.02;103128.97;5004255;28;1198;-76
2023/04/03 06:24:13;;;;;;;;;;;;;;;1.03;87.85;103134.13;5007563;28;1301;-76
2023/04/03 06:26:39;;;;;;;;;;;;;;;1.03;88.06;103136.69;5007744;28;1285;-76
2023/04/03 06:29:04;;;;;;;;;;;;;;;1.09;87.94;103134.91;5009157;28;1181;-77
2023/04/03 06:31:29;;;;;;;;;;;;;;;1.19;87.24;103139.13;5006314;28;1163;-77
2023/04/03 06:33:56;;;;;;;;;;;;;;;1.11;88.19;103131.53;5003063;28;1894;-76
2023/04/03 06:36:21;;;;;;;;;;;;;;;1.11;87.96;103135.78;5002112;28;1294;-76
2023/04/03 06:38:47;;;;;;;;;;;;;;;1.18;87.93;103122.09;4998189;28;1205;-76
2023/04/03 06:41:12;;;;;;;;;;;;;;;1.18;87.49;103132.34;5004146;28;1301;-77
2023/04/03 06:43:38;;;;;;;;;;;;;;;1.19;87.13;103134.88;5005403;28;2045;-76
2023/04/03 06:46:03;;;;;;;;;;;;;;;1.22;87.15;103144.25;5000345;28;1121;-77
2023/04/03 06:48:29;;;;;;;;;;;;;;;1.28;87.16;103149.31;5003247;28;1462;-78
2023/04/03 06:50:54;;;;;;;;;;;;;;;1.29;85.95;103140.78;4987387;28;1229;-76
2023/04/03 06:53:20;;;;;;;;;;;;;;;1.30;86.61;103145.03;4982536;28;1226;-77
2023/04/03 06:55:45;;;;;;;;;;;;;;;1.34;86.68;103149.28;4994960;28;1936;-77
2023/04/03 06:58:10;;;;;;;;;;;;;;;1.42;86.95;103152.63;5002859;28;1277;-76
2023/04/03 07:00:36;;;;;;;;;;;;;;;1.49;85.92;103154.31;5005890;28;1205;-77
2023/04/03 07:03:01;;;;;;;;;;;;;;;1.53;85.85;103157.69;4984069;28;1403;-76
2023/04/03 07:05:26;;;;;;;;;;;;;;;1.58;86.05;103161.06;5010769;28;1423;-76
2023/04/03 07:07:53;;;;;;;;;;;;;;;1.59;86.34;103155.09;5013106;28;1116;-78
2023/04/03 07:10:18;;;;;;;;;;;;;;;1.65;85.86;103164.44;5002685;28;1154;-76
2023/04/03 07:12:43;;;;;;;;;;;;;;;1.68;85.41;103165.28;5001045;28;1432;-77
2023/04/03 07:15:09;;;;;;;;;;;;;;;1.75;85.98;103160.97;5004590;28;1965;-76
2023/04/03 07:17:35;;;;;;;;;;;;;;;1.85;84.82;103166.00;4999426;28;1423;-76
2023/04/03 07:20:01;;;;;;;;;;;;;;;1.81;84.80;103158.34;5010189;28;1281;-77
2023/04/03 07:22:26;;;;;;;;;;;;;;;1.89;84.87;103171.06;4998425;28;1159;-78
2023/04/03 07:24:51;;;;;;;;;;;;;;;1.92;84.17;103174.47;5009135;28;1092;-77
2023/04/03 07:27:17;;;;;;;;;;;;;;;1.95;83.73;103171.03;5005920;28;990;-76
2023/04/03 07:29:42;;;;;;;;;;;;;;;1.98;83.63;103176.97;4986630;28;1319;-76
2023/04/03 07:32:08;;;;;;;;;;;;;;;2.04;83.39;103184.59;5004926;28;1391;-77
2023/04/03 07:34:33;;;;;;;;;;;;;;;2.04;82.65;103189.72;5000954;28;1922;-78
2023/04/03 07:36:58;;;;;;;;;;;;;;;2.06;82.14;103188.00;5003140;28;1335;-77
2023/04/03 07:39:25;;;;;;;;;;;;;;;2.09;81.35;103177.75;5003985;28;1427;-76
2023/04/03 07:41:50;;;;;;;;;;;;;;;2.11;82.16;103185.41;5007685;28;1105;-77
2023/04/03 07:44:15;;;;;;;;;;;;;;;2.16;82.00;103187.94;5008483;28;1317;-77
2023/04/03 07:46:42;;;;;;;;;;;;;;;2.27;81.97;103181.00;4999858;28;1149;-77
2023/04/03 07:49:07;;;;;;;;;;;;;;;2.29;81.83;103189.50;4999594;28;1483;-77
2023/04/03 07:51:32;;;;;;;;;;;;;;;2.34;81.06;103186.03;5006448;28;1087;-76
2023/04/03 07:53:58;;;;;;;;;;;;;;;2.37;80.63;103183.47;5004980;28;1985;-78
2023/04/03 07:56:24;;;;;;;;;;;;;;;2.34;80.77;103187.75;5003091;28;1253;-77
2023/04/03 07:58:50;;;;;;;;;;;;;;;2.40;80.98;103192.81;4998934;28;1112;-77
2023/04/03 08:01:15;;;;;;;;;;;;;;;2.44;79.98;103183.41;4999548;28;1316;-77
2023/04/03 08:03:40;;;;;;;;;;;;;;;2.45;79.30;103196.19;5004093;28;1332;-77
2023/04/03 08:06:07;;;;;;;;;;;;;;;2.51;79.63;103196.13;5011316;28;1026;-77
2023/04/03 08:08:32;;;;;;;;;;;;;;;2.55;77.97;103190.13;4993189;28;1225;-78
2023/04/03 08:10:59;;;;;;;;;;;;;;;2.68;78.75;103198.53;5009982;28;1160;-77
2023/04/03 08:13:25;;;;;;;;;;;;;;;2.73;78.40;103191.63;4992161;28;1527;-77
2023/04/03 08:15:50;;;;;;;;;;;;;;;2.79;78.17;103196.69;5008854;28;1960;-76
2023/04/03 08:18:15;;;;;;;;;;;;;;;2.82;78.30;103194.13;5007759;28;1476;-76
2023/04/03 08:20:41;;;;;;;;;;;;;;;2.91;76.92;103205.97;5006745;28;1348;-77
2023/04/03 08:23:06;;;;;;;;;;;;;;;2.92;77.06;103193.16;5005245;28;1169;-75
2023/04/03 08:25:32;;;;;;;;;;;;;;;2.99;77.66;103193.91;5002006;28;1095;-76
2023/04/03 08:27:57;;;;;;;;;;;;;;;3.04;78.06;103199.84;4999453;28;1104;-76
2023/04/03 08:30:22;;;;;;;;;;;;;;;3.12;76.48;103195.47;5011012;28;1167;-75
2023/04/03 08:32:48;;;;;;;;;;;;;;;3.14;74.86;103201.41;5002433;28;1245;-76
2023/04/03 08:35:13;;;;;;;;;;;;;;;3.12;71.09;103200.59;5000232;28;1895;-76
2023/04/03 08:37:40;;;;;;;;;;;;;;;3.13;71.62;103197.16;4990867;28;1279;-76
2023/04/03 08:40:06;;;;;;;;;;;;;;;3.20;67.94;103203.88;5002047;28;1194;-76
2023/04/03 08:42:50;;;;;;;;;;;;;;;3.29;69.12;103209.78;5008316;28;1437;-76
2023/04/03 08:45:21;;;;;;;;;;;;;;;3.45;70.21;103209.56;4986029;28;1257;-76
2023/04/03 08:48:07;;;;;;;;;;;;;;;3.53;68.41;103219.72;5010128;28;1175;-78
2023/04/03 08:50:58;;;;;;;;;;;;;;;3.54;66.87;103218.00;5008106;28;1063;-76
2023/04/03 08:53:31;;;;;;;;;;;;;;;3.64;67.44;103209.31;5004213;28;1181;-76
2023/04/03 08:55:57;;;;;;;;;;;;;;;3.72;64.51;103213.44;5001489;28;1038;-76
2023/04/03 08:58:25;;;;;;;;;;;;;;;3.81;66.09;103207.34;4997237;28;1118;-76
2023/04/03 09:00:53;;;;;;;;;;;;;;;4.06;65.03;103218.06;5003118;28;1105;-75
2023/04/03 09:03:20;;;;;;;;;;;;;;;4.03;62.36;103223.28;5002145;28;1301;-76
2023/04/03 09:06:01;;;;;;;;;;;;;;;4.00;59.88;103219.00;5001081;28;1435;-75
2023/04/03 09:08:26;;;;;;;;;;;;;;;4.06;59.53;103217.22;5003027;28;1141;-76
2023/04/03 09:11:12;;;;;;;;;;;;;;;4.11;59.60;103231.69;4999537;28;1239;-76
2023/04/03 09:13:43;;;;;;;;;;;;;;;4.11;57.62;103225.72;4997332;28;1899;-75
2023/04/03 09:16:18;;;;;;;;;;;;;;;4.20;58.41;103226.41;4988458;28;1331;-76
2023/04/03 09:18:48;;;;;;;;;;;;;;;4.26;60.42;103225.47;4997289;28;1153;-77
2023/04/03 09:21:13;;;;;;;;;;;;;;;4.32;56.09;103239.94;4999128;28;1600;-76
2023/04/03 09:23:59;;;;;;;;;;;;;;;4.33;57.10;103236.47;5000804;28;1500;-76
2023/04/03 09:26:34;;;;;;;;;;;;;;;4.39;58.27;103226.09;5005658;28;1075;-76
2023/04/03 09:29:01;;;;;;;;;;;;;;;4.64;55.67;103229.06;5004115;28;1120;-76
2023/04/03 09:31:30;;;;;;;;;;;;;;;4.53;55.20;103226.72;4995673;28;1371;-76
2023/04/03 09:34:03;;;;;;;;;;;;;;;4.58;55.07;103212.03;5005219;28;1899;-76
2023/04/03 09:36:39;;;;;;;;;;;;;;;4.70;53.40;103216.97;4984263;28;1460;-75
2023/04/03 09:39:05;;;;;;;;;;;;;;;4.75;53.83;103210.00;5009773;28;1046;-76
2023/04/03 09:41:32;;;;;;;;;;;;;;;4.92;53.21;103206.25;4997646;28;1109;-76
2023/04/03 09:43:58;;;;;;;;;;;;;;;4.94;50.40;103209.69;4999437;28;1129;-76
2023/04/03 09:46:33;;;;;;;;;;;;;;;4.89;53.00;103201.19;4992738;28;1000;-75
2023/04/03 09:48:59;;;;;;;;;;;;;;;4.96;51.10;103207.91;4997818;28;1141;-76
2023/04/03 09:51:27;;;;;;;;;;;;;;;4.97;49.93;103191.59;5002250;28;1154;-76
2023/04/03 09:53:52;;;;;;;;;;;;;;;5.01;50.27;103211.25;5006483;28;1965;-77
2023/04/03 09:56:17;;;;;;;;;;;;;;;5.03;49.22;103206.91;5006418;28;1163;-75
2023/04/03 09:59:06;;;;;;;;;;;;;;;5.11;49.26;103205.03;5003908;28;1447;-75
2023/04/03 10:01:33;;;;;;;;;;;;;;;5.18;48.45;103201.44;4998016;28;1150;-76
2023/04/03 10:04:10;;;;;;;;;;;;;;;5.33;47.63;103198.56;5001988;28;1175;-77
2023/04/03 10:06:56;;;;;;;;;;;;;;;5.30;47.77;103198.63;4982552;28;1420;-77
2023/04/03 10:09:31;;;;;;;;;;;;;;;5.32;47.24;103181.41;4985617;28;1502;-76
2023/04/03 10:11:56;;;;;;;;;;;;;;;5.38;47.56;103180.44;5002629;28;1158;-76
2023/04/03 10:14:21;;;;;;;;;;;;;;;5.56;43.52;103189.47;5004955;28;1925;-77
2023/04/03 10:16:52;;;;;;;;;;;;;;;5.62;44.83;103179.06;5007719;28;1208;-78
2023/04/03 10:19:41;;;;;;;;;;;;;;;5.58;44.33;103177.44;5002491;28;1043;-76
2023/04/03 10:22:16;;;;;;;;;;;;;;;5.68;44.51;103173.75;4989208;28;1266;-76
2023/04/03 10:24:47;;;;;;;;;;;;;;;5.83;45.81;103170.81;4999537;28;1275;-77
2023/04/03 10:27:30;;;;;;;;;;;;;;;6.03;43.43;103182.41;4994950;28;1327;-77
2023/04/03 10:30:35;;;;;;;;;;;;;;;5.91;42.35;103154.31;4984819;28;1249;-76
2023/04/03 10:33:18;;;;;;;;;;;;;;;5.95;43.02;103164.53;4915634;29;1457;-76
2023/04/03 10:35:48;;;;;;;;;;;;;;;5.96;42.36;103158.50;4930133;29;2172;-77
2023/04/03 10:38:33;;;;;;;;;;;;;;;6.13;42.15;103155.50;4967914;28;1297;-76
2023/04/03 10:41:04;;;;;;;;;;;;;;;6.10;41.21;103156.44;5007618;28;1220;-77
2023/04/03 10:43:32;;;;;;;;;;;;;;;6.04;39.84;103150.59;5008519;28;1054;-77
2023/04/03 10:46:12;;;;;;;;;;;;;;;6.03;42.15;103151.50;4987996;28;1304;-76
2023/04/03 10:48:43;;;;;;;;;;;;;;;6.15;41.88;103143.44;4986624;28;1260;-76
2023/04/03 10:51:08;;;;;;;;;;;;;;;6.22;43.39;103139.81;5004537;28;1152;-77
2023/04/03 10:53:45;;;;;;;;;;;;;;;6.34;39.45;103149.78;5005847;28;1184;-77
2023/04/03 10:56:13;;;;;;;;;;;;;;;6.34;40.46;103133.47;5006044;28;1295;-78
2023/04/03 10:58:38;;;;;;;;;;;;;;;6.49;39.89;103127.09;5003068;28;1275;-77
2023/04/03 11:01:08;;;;;;;;;;;;;;;6.47;42.64;103128.84;5008220;28;1172;-76
2023/04/03 11:03:42;;;;;;;;;;;;;;;6.62;41.10;103133.59;5005283;28;1460;-77
2023/04/03 11:06:09;;;;;;;;;;;;;;;6.57;40.12;103114.81;5007263;28;1202;-76
2023/04/03 11:08:34;;;;;;;;;;;;;;;6.59;43.59;103113.03;5004509;28;1480;-77
2023/04/03 11:11:02;;;;;;;;;;;;;;;6.65;39.91;103116.31;5007175;28;1498;-77
2023/04/03 11:13:28;;;;;;;;;;;;;;;6.65;40.99;103102.53;4993536;28;1162;-76
2023/04/03 11:15:54;;;;;;;;;;;;;;;6.64;41.55;103112.00;4998887;28;1965;-77
2023/04/03 11:18:35;;;;;;;;;;;;;;;6.80;41.25;103122.72;5006246;28;1177;-77
2023/04/03 11:21:06;;;;;;;;;;;;;;;6.78;41.11;103127.09;5000429;28;1536;-77
2023/04/03 11:23:34;;;;;;;;;;;;;;;6.85;42.33;103133.75;5006916;28;1357;-77
2023/04/03 11:26:11;;;;;;;;;;;;;;;6.89;42.51;103127.63;4998326;28;1304;-77
2023/04/03 11:28:37;;;;;;;;;;;;;;;6.90;41.94;103124.16;5005762;28;1213;-77
2023/04/03 11:31:26;;;;;;;;;;;;;;;6.92;41.20;103122.38;5003020;28;1050;-78
2023/04/03 11:34:00;;;;;;;;;;;;;;;6.97;40.40;103118.81;4989444;28;1898;-77
2023/04/03 11:36:34;;;;;;;;;;;;;;;6.93;43.14;103118.91;5009346;28;1002;-77
2023/04/03 11:39:01;;;;;;;;;;;;;;;7.03;41.90;103109.16;5013254;28;967;-76
2023/04/03 11:41:31;;;;;;;;;;;;;;;7.18;41.92;103100.97;5005100;28;1100;-77
2023/04/03 11:44:01;;;;;;;;;;;;;;;7.13;41.38;103094.25;5006498;28;1093;-78
2023/04/03 11:46:50;;;;;;;;;;;;;;;7.07;42.75;103090.13;5010853;28;1026;-77
2023/04/03 11:49:35;;;;;;;;;;;;;;;7.15;42.20;103095.03;4995781;28;1158;-77
2023/04/03 11:52:00;;;;;;;;;;;;;;;7.22;42.33;103109.44;4997383;28;1158;-76
2023/04/03 11:54:35;;;;;;;;;;;;;;;7.11;42.86;103111.50;5005164;28;1914;-77
2023/04/03 11:57:20;;;;;;;;;;;;;;;7.20;44.16;103106.06;5001078;28;1262;-77
2023/04/03 11:59:46;;;;;;;;;;;;;;;7.20;44.13;103095.75;5004178;28;1157;-77
2023/04/03 12:02:29;;;;;;;;;;;;;;;7.29;42.10;103090.31;5004458;28;1153;-78
2023/04/03 12:05:33;;;;;;;;;;;;;;;7.49;42.29;103092.25;5008812;28;1146;-77
2023/04/03 12:08:17;;;;;;;;;;;;;;;7.48;43.34;103087.13;4924821;29;1471;-77
2023/04/03 12:10:42;;;;;;;;;;;;;;;7.59;41.26;103093.63;4924652;29;1494;-77
2023/04/03 12:13:15;;;;;;;;;;;;;;;7.66;42.53;103089.09;4967531;28;1150;-77
2023/04/03 12:15:40;;;;;;;;;;;;;;;7.67;42.52;103080.47;5000186;28;1967;-77
2023/04/03 12:18:24;;;;;;;;;;;;;;;7.70;42.46;103085.53;5004968;28;1046;-76
2023/04/03 12:20:53;;;;;;;;;;;;;;;7.70;42.81;103080.38;4988628;28;1362;-77
2023/04/03 12:23:30;;;;;;;;;;;;;;;7.61;42.53;103070.34;5008609;28;1240;-77
2023/04/03 12:26:19;;;;;;;;;;;;;;;7.62;43.06;103064.25;5012766;28;928;-78
2023/04/03 12:28:46;;;;;;;;;;;;;;;7.69;41.62;103063.19;4988334;28;1340;-77
2023/04/03 12:31:11;;;;;;;;;;;;;;;7.67;41.11;103073.56;5002838;28;1244;-77
2023/04/03 12:33:59;;;;;;;;;;;;;;;7.52;41.06;103066.34;4988770;28;2053;-76
2023/04/03 12:36:45;;;;;;;;;;;;;;;7.53;42.42;103051.69;5008621;28;1316;-76
2023/04/03 12:39:18;;;;;;;;;;;;;;;7.48;41.08;103069.06;4999764;28;1198;-77
2023/04/03 12:41:53;;;;;;;;;;;;;;;7.52;44.01;103057.75;4997966;28;1388;-76
2023/04/03 12:44:40;;;;;;;;;;;;;;;7.62;41.46;103062.53;5001183;28;1203;-76
2023/04/03 12:47:21;;;;;;;;;;;;;;;7.57;42.52;103058.41;5011684;28;1115;-77
2023/04/03 12:49:49;;;;;;;;;;;;;;;7.58;42.14;103049.78;5007003;28;1103;-76
2023/04/03 12:52:26;;;;;;;;;;;;;;;7.58;44.12;103049.78;5008037;28;1093;-76
2023/04/03 12:54:52;;;;;;;;;;;;;;;7.64;45.21;103052.16;5004911;28;1911;-77
2023/04/03 12:57:19;;;;;;;;;;;;;;;7.65;43.11;103048.69;4999706;28;1164;-77
2023/04/03 12:59:46;;;;;;;;;;;;;;;7.62;42.11;103041.03;4991477;28;1121;-77
2023/04/03 13:02:33;;;;;;;;;;;;;;;7.70;42.37;103044.22;4999139;28;1259;-77
2023/04/03 13:05:00;;;;;;;;;;;;;;;7.72;41.31;103042.41;5004835;28;1309;-77